Beechwood, Michigan
Current Conditions -  °F | °C
As of 3:55 PM on Tuesday 25 Nov 2014 (Local Time) from KLNL Reporting Station
Clear Clear  
Wind Chill: -7°   Ceiling: Unl
Heat Index: -7°   Visibility: 10mi
Dew Point: -12°   Wind: 3mph
Humidity: 71%   Direction: 230°SW
Pressure: 29.97"   Gusts: NA
Location:  46.2163°N, 88.7676°W
Report Text: KLNL 252155Z AUTO 23003KT 10SM CLR M07/M12 A2997 RMK AO2 T10711116
Loading
Personal Weather Stations






























Interactive Weather Map New forecast layout! Learn more

10-Day Weather Forecast

Advertisements
Track Severe Weather on mobile